• Join FlightAware (Why Join?)
  • Login
  • US Flag 
02:47PM EDT


 

Airport Tracker/Info


-or-


 

Live Flight TrackerFlight Track Log ✈ VH-BOF ✈ 20-Jun-2013 ✈ YNTM - YPJT / JAD

Flight Track Log - Related Links

Times and Time Zones

All times are in EDT time to prevent confusion due to time zone crossing. See the VH-BOF flight status page for this flight to view local times or setup timezone preferences in your user account.

Time Position Orientation Groundspeed Altitude Reporting Facility
EDT Latitude Longitude Course Direction KTS MPH feet Rate Location/Type
03:26AM -31.6741 116.6002 235° Southwest  Level Estimated
03:26AM -31.7536 116.4300 235° Southwest 104 120 2,500  Level Aus ATC (RADAR)
03:27AM -31.7883 116.3996 217° Southwest 110 127 2,500  Level Aus ATC (RADAR)
03:29AM -31.8322 116.3688 211° Southwest 106 122 2,500  Level Aus ATC (RADAR)
03:32AM -31.9115 116.2992 217° Southwest 104 120 2,500  Level Aus ATC (RADAR)
03:35AM -31.9699 116.2345 223° Southwest 105 121 2,500  Level Aus ATC (RADAR)
03:38AM -32.0405 116.1692 218° Southwest 103 119 2,500  Level Aus ATC (RADAR)
03:40AM -32.0899 116.1366 209° Southwest 100 115 2,600  Climbing Aus ATC (RADAR)
03:45AM -32.1533 116.0353 293° West 2,500 -60 Descending Aus ATC (Calculated)
03:47AM -32.1475 116.0193 293° West  Level Estimated
03:48AM -32.1438 116.0089 293° West  Level Estimated
03:48AM -32.1597 115.9306 326° Northwest 100  Level Aus ATC (Calculated)
03:48AM -32.1286 115.9059 146° Southeast 100  Level Aus ATC (Calculated)
03:50AM -32.1441 115.9182 326° Northwest  Level Estimated
03:51AM -32.1361 115.9118 326° Northwest  Level Estimated
03:52AM -32.1042 115.8865 326° Northwest  Level Estimated
03:53AM -32.0975 115.8811 326° Northwest  Level Estimated
03:54AM -32.0975 115.8811 90° East  Level Estimated
03:55AM -32.0975 115.8811 90° East  Level Estimated
03:56AM -32.0975 115.8811 90° East  Level Estimated
03:57AM -32.0975 115.8811 90° East  Level Estimated
03:58AM -32.0975 115.8811 90° East  Level Estimated
03:59AM -32.0975 115.8811 90° East  Level Estimated
04:00AM -32.0975 115.8811 90° East  Level Estimated
04:01AM -32.0975 115.8811 90° East  Level Estimated
04:02AM -32.0975 115.8811 90° East  Level Estimated
04:03AM -32.0975 115.8811 90° East  Level Estimated
04:04AM -32.0975 115.8811 90° East  Level Estimated
04:05AM -32.0975 115.8811 90° East  Level Estimated
04:06AM -32.0975 115.8811 90° East  Level Estimated
04:07AM -32.0975 115.8811 90° East  Level Estimated
04:08AM -32.0975 115.8811 90° East  Level Estimated
04:09AM -32.0975 115.8811 90° East  Level Estimated